プンタアレナス の空港の天気 - METARとTAF

プンタアレナス空港 ( SCCI / PUQ ) - チリ プンタアレナス
飛行場実況気象(Metar)
観測時間07/17 05:00 CLT (07/17 09:00 UTC)
風向・風速西南西 4m/s
視程10km以上
天気現象
なし
気温-5℃
湿度93%
気圧1025hPa
METARSCCI 170900Z 24008KT CAVOK M05/M06 Q1025 NOSIG
過去の天気等 Google飛行場航空写真 Wunderground天気予報

過去48時間のMETAR

飛行場予報(TAF)
発表時間: 7/17 00:16 CLT (7/17 04:16 UTC)
予報対象時間: 17日2時 CLT ~ 18日2時 CLT
風向・風速西南西 4m/s
視程10km以上
なし
17日3時 CLT ~ 17日7時 CLT に 確率 30% で一時的に
風向・風速不定 2m/s
視程10km以上
少しの雲 雲底高度 150m
全天の4割程度の雲 雲底高度 1070m
17日10時 CLT ~ 17日14時 CLT に一時的に
風向・風速西 7m/s
視程10km以上
全天の8割程度の雲 雲底高度 1010m
18日0時 CLT ~ 18日2時 CLT に徐々に
風向・風速西 4m/s
視程10km以上
少しの雲 雲底高度 300m
TAF SCCI 170416Z 1706/1806 24007KT CAVOK TNM05/1711Z TX03/1718Z
PROB30 TEMPO 1707/1711 VRB03KT 9999 FEW005 SCT035
TEMPO 1714/1718 26013KT 9999 BKN033
BECMG 1804/1806 28007KT 9999 FEW010